createdAt,value
2023-04-02T00:00:25.625Z,96092.72
2023-04-02T00:03:08.640Z,96094.19
2023-04-02T00:05:51.869Z,96093.38
2023-04-02T00:08:31.005Z,96097.72
2023-04-02T00:11:02.099Z,96092.44
2023-04-02T00:13:37.516Z,96095.03
2023-04-02T00:16:10.307Z,96094.72
2023-04-02T00:18:46.664Z,96099.97
2023-04-02T00:21:23.198Z,96099.19
2023-04-02T00:23:56.726Z,96101.44
2023-04-02T00:26:34.285Z,96098.72
2023-04-02T00:29:04.739Z,96100.47
2023-04-02T00:31:34.918Z,96106.38
2023-04-02T00:34:05.702Z,96096.94
2023-04-02T00:36:36.341Z,96103.84
2023-04-02T00:39:18.361Z,96104.78
2023-04-02T00:41:47.983Z,96108.94
2023-04-02T00:44:22.020Z,96108.00
2023-04-02T00:46:52.644Z,96109.91
2023-04-02T00:49:26.191Z,96102.56
2023-04-02T00:52:00.165Z,96109.78
2023-04-02T00:54:39.776Z,96102.56
2023-04-02T00:57:18.508Z,96100.47
2023-04-02T00:59:57.787Z,96097.63
2023-04-02T01:02:31.531Z,96101.63
2023-04-02T01:05:03.570Z,96105.13
2023-04-02T01:07:56.032Z,96109.63
2023-04-02T01:10:59.754Z,96108.34
2023-04-02T01:13:38.090Z,96109.31
2023-04-02T01:16:19.389Z,96113.16
2023-04-02T01:19:01.954Z,96111.09
2023-04-02T01:21:59.049Z,96114.59
2023-04-02T01:24:34.111Z,96115.53
2023-04-02T01:27:14.293Z,96117.16
2023-04-02T01:29:49.500Z,96117.00
2023-04-02T01:32:22.055Z,96122.75
2023-04-02T01:34:52.324Z,96124.38
2023-04-02T01:37:45.045Z,96124.03
2023-04-02T01:40:36.651Z,96131.84
2023-04-02T01:43:20.896Z,96136.50
2023-04-02T01:45:51.587Z,96136.50
2023-04-02T01:48:24.826Z,96142.72
2023-04-02T01:50:58.529Z,96148.16
2023-04-02T01:53:32.169Z,96140.34
2023-04-02T01:56:04.866Z,96139.53
2023-04-02T01:58:35.361Z,96141.78
2023-04-02T02:01:15.322Z,96142.13
2023-04-02T02:03:46.918Z,96135.56
2023-04-02T02:06:18.685Z,96143.06
2023-04-02T02:08:52.710Z,96137.97
2023-04-02T02:11:26.540Z,96138.09
2023-04-02T02:13:57.994Z,96133.81
2023-04-02T02:16:32.072Z,96141.47
2023-04-02T02:19:05.982Z,96143.41
2023-04-02T02:21:43.467Z,96144.19
2023-04-02T02:24:22.579Z,96147.88
2023-04-02T02:27:04.952Z,96149.63
2023-04-02T02:29:40.965Z,96152.53
2023-04-02T02:32:15.670Z,96158.44
2023-04-02T02:34:57.491Z,96157.47
2023-04-02T02:37:31.831Z,96157.78
2023-04-02T02:40:06.955Z,96155.38
2023-04-02T02:42:41.811Z,96167.69
2023-04-02T02:45:19.164Z,96167.88
2023-04-02T02:47:51.639Z,96169.47
2023-04-02T02:50:26.093Z,96167.53
2023-04-02T02:52:59.675Z,96172.50
2023-04-02T02:55:36.942Z,96176.81
2023-04-02T02:58:23.207Z,96181.91
2023-04-02T03:01:06.329Z,96190.91
2023-04-02T03:03:38.905Z,96188.97
2023-04-02T03:06:12.154Z,96184.97
2023-04-02T03:08:50.118Z,96189.94
2023-04-02T03:11:34.568Z,96187.22
2023-04-02T03:14:19.353Z,96197.28
2023-04-02T03:16:55.376Z,96196.66
2023-04-02T03:19:35.999Z,96201.63
2023-04-02T03:22:14.809Z,96206.88
2023-04-02T03:24:57.750Z,96205.75
2023-04-02T03:27:35.535Z,96209.91
2023-04-02T03:30:30.125Z,96214.84
2023-04-02T03:33:07.775Z,96215.53
2023-04-02T03:35:44.181Z,96218.41
2023-04-02T03:38:21.909Z,96225.41
2023-04-02T03:41:03.113Z,96219.66
2023-04-02T03:43:40.755Z,96224.94
2023-04-02T03:46:24.359Z,96221.09
2023-04-02T03:48:57.202Z,96231.03
2023-04-02T03:51:34.500Z,96230.38
2023-04-02T03:54:04.914Z,96229.91
2023-04-02T03:56:41.081Z,96232.47
2023-04-02T03:59:26.762Z,96229.25
2023-04-02T04:02:02.995Z,96234.69
2023-04-02T04:04:35.032Z,96240.44
2023-04-02T04:07:05.552Z,96243.34
2023-04-02T04:09:38.202Z,96247.16
2023-04-02T04:12:23.338Z,96243.16
2023-04-02T04:15:00.784Z,96244.78
2023-04-02T04:17:54.055Z,96257.88
2023-04-02T04:20:35.637Z,96259.47
2023-04-02T04:23:25.874Z,96262.38
2023-04-02T04:26:01.908Z,96266.03
2023-04-02T04:28:43.545Z,96267.00
2023-04-02T04:31:25.972Z,96280.41
2023-04-02T04:34:04.563Z,96277.38
2023-04-02T04:36:48.019Z,96282.50
2023-04-02T04:39:25.468Z,96276.25
2023-04-02T04:41:56.665Z,96284.22
2023-04-02T04:44:39.690Z,96287.41
2023-04-02T04:47:16.668Z,96294.75
2023-04-02T04:49:51.782Z,96301.69
2023-04-02T04:52:25.913Z,96298.50
2023-04-02T04:54:56.064Z,96307.25
2023-04-02T04:57:34.942Z,96307.41
2023-04-02T05:00:19.104Z,96303.38
2023-04-02T05:02:55.827Z,96311.06
2023-04-02T05:05:30.787Z,96313.78
2023-04-02T05:08:12.815Z,96317.63
2023-04-02T05:10:50.693Z,96322.63
2023-04-02T05:13:26.713Z,96322.56
2023-04-02T05:16:12.179Z,96325.75
2023-04-02T05:18:47.020Z,96326.41
2023-04-02T05:21:24.078Z,96328.50
2023-04-02T05:24:00.344Z,96329.94
2023-04-02T05:26:38.553Z,96336.78
2023-04-02T05:29:16.835Z,96344.78
2023-04-02T05:31:50.924Z,96345.44
2023-04-02T05:34:28.937Z,96349.00
2023-04-02T05:36:59.254Z,96342.56
2023-04-02T05:39:29.545Z,96354.25
2023-04-02T05:42:05.962Z,96354.94
2023-04-02T05:45:04.602Z,96357.50
2023-04-02T05:47:40.870Z,96355.72
2023-04-02T05:50:26.430Z,96357.19
2023-04-02T05:53:05.561Z,96352.38
2023-04-02T05:55:44.320Z,96362.44
2023-04-02T06:01:18.989Z,96367.28
2023-04-02T06:03:58.601Z,96374.97
2023-04-02T06:06:53.824Z,96380.41
2023-04-02T06:09:35.405Z,96385.53
2023-04-02T06:12:20.545Z,96381.19
2023-04-02T06:14:50.676Z,96386.78
2023-04-02T06:17:21.697Z,96394.00
2023-04-02T06:19:52.434Z,96405.34
2023-04-02T06:22:28.637Z,96402.16
2023-04-02T06:25:06.949Z,96399.91
2023-04-02T06:27:45.043Z,96423.59
2023-04-02T06:30:24.290Z,96407.28
2023-04-02T06:32:53.999Z,96413.69
2023-04-02T06:35:23.642Z,96413.81
2023-04-02T06:38:08.338Z,96416.91
2023-04-02T06:40:45.137Z,96420.41
2023-04-02T06:43:36.424Z,96430.28
2023-04-02T06:46:35.824Z,96430.75
2023-04-02T06:49:20.677Z,96429.81
2023-04-02T06:51:56.245Z,96432.06
2023-04-02T06:54:24.729Z,96444.69
2023-04-02T06:56:58.595Z,96443.41
2023-04-02T06:59:39.516Z,96448.22
2023-04-02T07:02:31.210Z,96452.25
2023-04-02T07:05:09.129Z,96462.03
2023-04-02T07:07:40.237Z,96461.34
2023-04-02T07:10:13.934Z,96464.59
2023-04-02T07:12:42.535Z,96463.59
2023-04-02T07:15:17.345Z,96468.25
2023-04-02T07:17:48.306Z,96470.19
2023-04-02T07:20:29.167Z,96479.22
2023-04-02T07:22:59.343Z,96469.34
2023-04-02T07:25:28.847Z,96472.69
2023-04-02T07:27:57.833Z,96472.44
2023-04-02T07:30:26.664Z,96477.50
2023-04-02T07:32:56.669Z,96479.75
2023-04-02T07:35:25.643Z,96483.41
2023-04-02T07:37:53.950Z,96485.50
2023-04-02T07:40:24.323Z,96484.25
2023-04-02T07:42:52.880Z,96490.19
2023-04-02T07:45:21.768Z,96494.50
2023-04-02T07:47:50.196Z,96494.88
2023-04-02T07:50:20.732Z,96499.19
2023-04-02T07:52:49.053Z,96504.50
2023-04-02T07:55:18.332Z,96510.84
2023-04-02T07:57:52.786Z,96506.06
2023-04-02T08:00:22.595Z,96516.97
2023-04-02T08:02:52.260Z,96520.41
2023-04-02T08:05:22.609Z,96523.28
2023-04-02T08:07:56.129Z,96521.56
2023-04-02T08:10:25.572Z,96524.59
2023-04-02T08:12:54.315Z,96531.81
2023-04-02T08:15:22.685Z,96533.13
2023-04-02T08:17:51.788Z,96537.44
2023-04-02T08:20:23.738Z,96542.53
2023-04-02T08:22:52.454Z,96543.59
2023-04-02T08:25:20.886Z,96550.78
2023-04-02T08:27:50.198Z,96550.53
2023-04-02T08:30:19.973Z,96550.69
2023-04-02T08:32:48.921Z,96554.09
2023-04-02T08:35:18.440Z,96558.19
2023-04-02T08:37:48.341Z,96557.56
2023-04-02T08:40:26.481Z,96557.75
2023-04-02T08:43:17.250Z,96566.03
2023-04-02T08:46:05.563Z,96572.28
2023-04-02T08:48:40.102Z,96575.50
2023-04-02T08:51:24.659Z,96577.75
2023-04-02T08:54:00.872Z,96579.69
2023-04-02T08:56:37.542Z,96575.72
2023-04-02T08:59:22.990Z,96578.94
2023-04-02T09:02:02.319Z,96579.94
2023-04-02T09:04:32.540Z,96580.59
2023-04-02T09:07:01.951Z,96592.91
2023-04-02T09:09:38.845Z,96595.84
2023-04-02T09:12:19.684Z,96587.97
2023-04-02T09:15:07.833Z,96597.25
2023-04-02T09:17:50.661Z,96598.72
2023-04-02T09:20:26.547Z,96599.66
2023-04-02T09:22:57.550Z,96605.44
2023-04-02T09:25:31.500Z,96614.09
2023-04-02T09:28:04.508Z,96615.38
2023-04-02T09:30:58.203Z,96614.91
2023-04-02T09:33:45.667Z,96624.00
2023-04-02T09:36:37.488Z,96621.97
2023-04-02T09:39:17.798Z,96634.28
2023-04-02T09:41:55.548Z,96617.88
2023-04-02T09:44:31.547Z,96628.97
2023-04-02T09:47:03.871Z,96636.38
2023-04-02T09:49:35.485Z,96633.91
2023-04-02T09:52:18.849Z,96640.81
2023-04-02T09:54:47.843Z,96645.94
2023-04-02T09:57:27.382Z,96641.91
2023-04-02T10:00:25.514Z,96643.69
2023-04-02T10:03:07.665Z,96636.81
2023-04-02T10:05:41.110Z,96646.13
2023-04-02T10:08:21.964Z,96649.50
2023-04-02T10:10:54.224Z,96656.09
2023-04-02T10:13:31.297Z,96648.44
2023-04-02T10:16:07.027Z,96656.41
2023-04-02T10:18:43.820Z,96651.47
2023-04-02T10:21:18.189Z,96659.03
2023-04-02T10:23:46.722Z,96654.84
2023-04-02T10:26:39.620Z,96666.09
2023-04-02T10:29:31.148Z,96664.78
2023-04-02T10:32:08.764Z,96664.63
2023-04-02T10:34:47.463Z,96664.16
2023-04-02T10:38:00.571Z,96658.16
2023-04-02T10:40:33.486Z,96663.19
2023-04-02T10:43:49.513Z,96663.53
2023-04-02T10:46:29.481Z,96670.72
2023-04-02T10:49:11.781Z,96670.56
2023-04-02T10:51:46.230Z,96675.22
2023-04-02T10:54:38.683Z,96677.28
2023-04-02T10:57:19.904Z,96681.63
2023-04-02T10:59:56.332Z,96685.44
2023-04-02T11:02:39.964Z,96679.69
2023-04-02T11:05:24.194Z,96689.78
2023-04-02T11:08:18.186Z,96692.19
2023-04-02T11:10:52.128Z,96688.09
2023-04-02T11:13:29.504Z,96686.00
2023-04-02T11:15:58.279Z,96682.56
2023-04-02T11:18:35.735Z,96694.78
2023-04-02T11:21:07.716Z,96691.97
2023-04-02T11:23:54.419Z,96694.00
2023-04-02T11:26:38.536Z,96697.00
2023-04-02T11:29:17.096Z,96698.28
2023-04-02T11:31:47.734Z,96700.53
2023-04-02T11:35:26.467Z,96706.47
2023-04-02T11:37:57.120Z,96710.59
2023-04-02T11:40:49.472Z,96714.25
2023-04-02T11:44:00.850Z,96724.72
2023-04-02T11:46:47.341Z,96719.44
2023-04-02T11:50:07.598Z,96731.84
2023-04-02T11:52:53.405Z,96742.13
2023-04-02T11:55:31.870Z,96747.69
2023-04-02T11:58:37.961Z,96755.97
2023-04-02T12:01:43.918Z,96751.16
2023-04-02T12:05:05.058Z,96761.09
2023-04-02T12:08:07.535Z,96759.56
2023-04-02T12:10:55.750Z,96760.09
2023-04-02T12:13:52.006Z,96763.72
2023-04-02T12:16:24.324Z,96770.13
2023-04-02T12:18:55.076Z,96770.81
2023-04-02T12:21:26.586Z,96773.22
2023-04-02T12:24:00.380Z,96768.91
2023-04-02T12:26:37.909Z,96780.28
2023-04-02T12:29:28.049Z,96782.72
2023-04-02T12:31:59.975Z,96790.91
2023-04-02T12:34:31.398Z,96788.69
2023-04-02T12:37:03.380Z,96793.16
2023-04-02T12:39:35.583Z,96798.91
2023-04-02T12:42:04.082Z,96788.19
2023-04-02T12:44:32.819Z,96802.97
2023-04-02T12:47:01.560Z,96808.59
2023-04-02T12:49:39.187Z,96808.56
2023-04-02T12:52:11.631Z,96807.75
2023-04-02T12:54:48.768Z,96807.41
2023-04-02T12:57:41.486Z,96818.16
2023-04-02T13:00:34.386Z,96816.25
2023-04-02T13:03:22.045Z,96814.63
2023-04-02T13:05:56.272Z,96816.41
2023-04-02T13:08:29.680Z,96828.09
2023-04-02T13:11:02.925Z,96826.00
2023-04-02T13:13:37.340Z,96826.16
2023-04-02T13:16:27.033Z,96824.44
2023-04-02T13:19:26.819Z,96828.25
2023-04-02T13:21:57.885Z,96838.22
2023-04-02T13:24:29.679Z,96838.53
2023-04-02T13:27:02.147Z,96835.47
2023-04-02T13:29:33.449Z,96848.50
2023-04-02T13:32:04.434Z,96848.03
2023-04-02T13:34:33.184Z,96853.16
2023-04-02T13:37:02.018Z,96848.97
2023-04-02T13:39:30.555Z,96839.84
2023-04-02T13:42:06.594Z,96847.28
2023-04-02T13:44:37.541Z,96849.34
2023-04-02T13:47:07.458Z,96850.31
2023-04-02T13:49:36.794Z,96850.78
2023-04-02T13:52:08.059Z,96862.63
2023-04-02T13:54:46.916Z,96864.25
2023-04-02T13:57:17.040Z,96868.13
2023-04-02T13:59:46.766Z,96871.22
2023-04-02T14:02:21.609Z,96877.19
2023-04-02T14:04:56.943Z,96881.00
2023-04-02T14:07:47.294Z,96879.91
2023-04-02T14:10:32.482Z,96889.34
2023-04-02T14:13:27.584Z,96885.88
2023-04-02T14:16:16.727Z,96888.91
2023-04-02T14:19:15.000Z,96893.31
2023-04-02T14:22:00.306Z,96899.81
2023-04-02T14:24:46.928Z,96900.03
2023-04-02T14:27:29.676Z,96909.72
2023-04-02T14:30:08.267Z,96913.66
2023-04-02T14:32:53.761Z,96916.59
2023-04-02T14:35:29.923Z,96919.63
2023-04-02T14:38:14.665Z,96916.84
2023-04-02T14:40:51.649Z,96915.22
2023-04-02T14:43:29.323Z,96927.34
2023-04-02T14:46:03.414Z,96923.91
2023-04-02T14:48:51.524Z,96925.63
2023-04-02T14:51:31.466Z,96933.78
2023-04-02T14:54:12.160Z,96929.28
2023-04-02T14:56:48.674Z,96935.84
2023-04-02T14:59:30.286Z,96945.44
2023-04-02T15:02:05.524Z,96948.41
2023-04-02T15:04:42.709Z,96947.66
2023-04-02T15:07:20.856Z,96953.34
2023-04-02T15:09:56.409Z,96952.75
2023-04-02T15:12:31.849Z,96956.44
2023-04-02T15:15:10.447Z,96961.09
2023-04-02T15:17:40.221Z,96967.66
2023-04-02T15:20:16.461Z,96969.78
2023-04-02T15:23:01.320Z,96974.22
2023-04-02T15:25:39.025Z,96974.50
2023-04-02T15:28:24.895Z,96981.75
2023-04-02T15:30:58.926Z,96985.38
2023-04-02T15:33:45.741Z,96981.16
2023-04-02T15:36:39.150Z,96990.00
2023-04-02T15:39:50.396Z,96994.25
2023-04-02T15:42:25.685Z,96991.75
2023-04-02T15:45:42.180Z,96998.91
2023-04-02T15:48:46.130Z,97004.56
2023-04-02T15:51:39.572Z,97015.34
2023-04-02T15:54:27.462Z,97009.75
2023-04-02T15:57:13.588Z,97019.94
2023-04-02T16:00:14.183Z,97020.94
2023-04-02T16:03:36.787Z,97027.81
2023-04-02T16:06:45.713Z,97033.25
2023-04-02T16:09:27.203Z,97041.94
2023-04-02T16:12:03.774Z,97044.66
2023-04-02T16:14:34.509Z,97042.81
2023-04-02T16:17:23.755Z,97045.22
2023-04-02T16:19:59.489Z,97055.69
2023-04-02T16:22:33.275Z,97062.03
2023-04-02T16:25:15.982Z,97069.59
2023-04-02T16:27:52.271Z,97066.63
2023-04-02T16:30:47.986Z,97074.16
2023-04-02T16:33:37.622Z,97080.06
2023-04-02T16:36:24.001Z,97079.78
2023-04-02T16:39:04.639Z,97095.75
2023-04-02T16:41:51.846Z,97100.97
2023-04-02T16:44:36.642Z,97105.81
2023-04-02T16:47:25.010Z,97098.03
2023-04-02T16:50:00.440Z,97111.13
2023-04-02T16:52:43.518Z,97113.31
2023-04-02T16:55:39.689Z,97122.06
2023-04-02T16:58:30.117Z,97129.97
2023-04-02T17:01:08.519Z,97133.50
2023-04-02T17:04:04.072Z,97131.56
2023-04-02T17:06:43.181Z,97138.69
2023-04-02T17:09:19.154Z,97138.31
2023-04-02T17:11:56.533Z,97134.13
2023-04-02T17:14:32.169Z,97140.56
2023-04-02T17:17:04.640Z,97155.16
2023-04-02T17:19:35.701Z,97151.72
2023-04-02T17:22:06.701Z,97155.16
2023-04-02T17:24:41.762Z,97162.97
2023-04-02T17:27:21.378Z,97155.19
2023-04-02T17:29:58.149Z,97162.19
2023-04-02T17:32:32.651Z,97161.97
2023-04-02T17:35:19.589Z,97165.63
2023-04-02T17:37:56.766Z,97170.63
2023-04-02T17:40:36.703Z,97177.31
2023-04-02T17:43:18.292Z,97184.88
2023-04-02T17:45:53.351Z,97189.84
2023-04-02T17:48:33.996Z,97199.03
2023-04-02T17:51:16.999Z,97199.09
2023-04-02T17:54:06.202Z,97205.97
2023-04-02T17:57:00.381Z,97213.25
2023-04-02T17:59:45.677Z,97217.63
2023-04-02T18:02:47.038Z,97226.94
2023-04-02T18:05:29.893Z,97242.47
2023-04-02T18:08:14.626Z,97230.13
2023-04-02T18:11:01.707Z,97237.72
2023-04-02T18:13:36.070Z,97247.38
2023-04-02T18:16:42.268Z,97246.63
2023-04-02T18:19:18.200Z,97254.91
2023-04-02T18:22:03.298Z,97260.38
2023-04-02T18:24:53.745Z,97270.50
2023-04-02T18:28:10.732Z,97277.88
2023-04-02T18:30:50.263Z,97289.00
2023-04-02T18:33:44.291Z,97295.81
2023-04-02T18:36:24.709Z,97305.31
2023-04-02T18:39:02.641Z,97309.63
2023-04-02T18:41:47.896Z,97310.69
2023-04-02T18:44:44.774Z,97319.69
2023-04-02T18:47:26.503Z,97327.53
2023-04-02T18:50:16.840Z,97339.47
2023-04-02T18:52:46.724Z,97337.34
2023-04-02T18:55:23.454Z,97348.47
2023-04-02T18:57:59.953Z,97345.75
2023-04-02T19:00:34.515Z,97352.28
2023-04-02T19:03:11.122Z,97350.34
2023-04-02T19:05:50.555Z,97357.41
2023-04-02T19:08:25.528Z,97352.56
2023-04-02T19:11:00.765Z,97359.59
2023-04-02T19:13:29.871Z,97365.28
2023-04-02T19:16:44.433Z,97376.66
2023-04-02T19:19:20.350Z,97381.59
2023-04-02T19:22:22.852Z,97382.94
2023-04-02T19:25:20.548Z,97394.06
2023-04-02T19:28:08.533Z,97402.44
2023-04-02T19:30:57.767Z,97404.63
2023-04-02T19:33:42.497Z,97408.94
2023-04-02T19:36:41.501Z,97425.47
2023-04-02T19:39:55.703Z,97421.38
2023-04-02T19:42:44.572Z,97418.41
2023-04-02T19:45:29.837Z,97420.06
2023-04-02T19:48:01.807Z,97433.28
2023-04-02T19:50:31.292Z,97424.38
2023-04-02T19:53:00.011Z,97430.56
2023-04-02T19:55:29.932Z,97439.22
2023-04-02T19:58:09.015Z,97446.53
2023-04-02T20:00:48.181Z,97452.47
2023-04-02T20:03:16.563Z,97461.66
2023-04-02T20:05:44.976Z,97472.19
2023-04-02T20:08:13.557Z,97470.84
2023-04-02T20:10:44.003Z,97472.47
2023-04-02T20:13:13.122Z,97477.34
2023-04-02T20:15:42.155Z,97473.78
2023-04-02T20:18:11.070Z,97480.00
2023-04-02T20:20:40.181Z,97489.72
2023-04-02T20:23:08.661Z,97494.88
2023-04-02T20:25:37.014Z,97502.66
2023-04-02T20:28:07.900Z,97503.50
2023-04-02T20:30:36.424Z,97500.53
2023-04-02T20:33:05.638Z,97507.00
2023-04-02T20:35:35.655Z,97501.31
2023-04-02T20:38:06.704Z,97509.69
2023-04-02T20:40:35.920Z,97511.28
2023-04-02T20:43:05.888Z,97515.63
2023-04-02T20:45:34.232Z,97520.22
2023-04-02T20:48:02.802Z,97536.72
2023-04-02T20:50:31.765Z,97528.31
2023-04-02T20:53:01.765Z,97538.28
2023-04-02T20:55:30.485Z,97547.75
2023-04-02T20:57:58.803Z,97547.53
2023-04-02T21:00:28.450Z,97540.72
2023-04-02T21:02:57.733Z,97546.41
2023-04-02T21:05:26.188Z,97547.50
2023-04-02T21:07:54.484Z,97541.25
2023-04-02T21:10:23.134Z,97547.75
2023-04-02T21:12:53.064Z,97551.53
2023-04-02T21:15:21.620Z,97542.13
2023-04-02T21:17:51.305Z,97552.09
2023-04-02T21:20:20.046Z,97554.00
2023-04-02T21:22:48.418Z,97554.84
2023-04-02T21:25:16.827Z,97555.91
2023-04-02T21:27:45.337Z,97562.13
2023-04-02T21:30:14.469Z,97564.56
2023-04-02T21:32:43.090Z,97557.84
2023-04-02T21:35:12.819Z,97550.78
2023-04-02T21:37:41.121Z,97567.75
2023-04-02T21:40:11.021Z,97552.84
2023-04-02T21:42:39.538Z,97557.69
2023-04-02T21:45:09.020Z,97559.06
2023-04-02T21:47:37.705Z,97558.81
2023-04-02T21:50:07.824Z,97572.31
2023-04-02T21:52:37.832Z,97561.78
2023-04-02T21:55:07.043Z,97568.81
2023-04-02T21:57:35.480Z,97565.31
2023-04-02T22:00:08.490Z,97576.88
2023-04-02T22:02:36.932Z,97573.06
2023-04-02T22:05:07.038Z,97575.53
2023-04-02T22:07:35.421Z,97569.78
2023-04-02T22:10:06.219Z,97575.19
2023-04-02T22:12:34.588Z,97579.50
2023-04-02T22:15:02.912Z,97581.97
2023-04-02T22:17:31.575Z,97585.47
2023-04-02T22:19:59.927Z,97584.16
2023-04-02T22:22:28.294Z,97588.41
2023-04-02T22:24:56.896Z,97581.97
2023-04-02T22:27:26.581Z,97595.53
2023-04-02T22:29:55.350Z,97594.44
2023-04-02T22:32:23.803Z,97597.13
2023-04-02T22:34:52.809Z,97609.03
2023-04-02T22:37:21.222Z,97602.53
2023-04-02T22:39:49.491Z,97602.22
2023-04-02T22:42:17.933Z,97610.56
2023-04-02T22:44:47.821Z,97605.72
2023-04-02T22:47:16.181Z,97604.91
2023-04-02T22:49:44.649Z,97613.28
2023-04-02T22:52:13.031Z,97609.22
2023-04-02T22:54:41.470Z,97607.03
2023-04-02T22:57:09.947Z,97608.63
2023-04-02T22:59:39.360Z,97602.63
2023-04-02T23:02:09.242Z,97604.59
2023-04-02T23:04:37.866Z,97601.09
2023-04-02T23:07:06.772Z,97597.06
2023-04-02T23:09:35.074Z,97605.66
2023-04-02T23:12:03.789Z,97604.59
2023-04-02T23:14:32.116Z,97605.09
2023-04-02T23:17:00.499Z,97608.63
2023-04-02T23:19:30.304Z,97601.59
2023-04-02T23:21:58.947Z,97607.56
2023-04-02T23:24:27.344Z,97602.97
2023-04-02T23:26:55.768Z,97608.44
2023-04-02T23:29:24.322Z,97600.31
2023-04-02T23:31:53.015Z,97603.03
2023-04-02T23:34:21.350Z,97604.69
2023-04-02T23:36:51.075Z,97595.75
2023-04-02T23:39:20.301Z,97602.81
2023-04-02T23:41:49.265Z,97607.97
2023-04-02T23:44:18.126Z,97601.72
2023-04-02T23:46:46.818Z,97602.81
2023-04-02T23:49:15.586Z,97597.16
2023-04-02T23:51:44.272Z,97597.72
2023-04-02T23:54:15.672Z,97593.69
2023-04-02T23:56:44.530Z,97592.56
2023-04-02T23:59:13.013Z,97591.66
